Time;durP1;ratioP1;P1;durP2;ratioP2;P2;SDS_P1;SDS_P2;PMS_P1;PMS_P2;Temp;Humidity;BMP_temperature;BMP_pressure;BME280_temperature;BME280_humidity;BME280_pressure;Samples;Min_cycle;Max_cycle;Signal;HPM_P1;HPM_P2
2022/02/06 00:01:00;;;;;;;9.30;2.05;;;2.50;92.10;;;;;;5043636;28;20028;-68
2022/02/06 00:03:26;;;;;;;6.40;2.20;;;2.40;92.30;;;;;;5040958;28;20021;-69
2022/02/06 00:05:52;;;;;;;10.20;2.10;;;2.50;92.20;;;;;;5042414;28;20029;-69
2022/02/06 00:08:18;;;;;;;8.43;2.38;;;2.50;92.30;;;;;;5044139;28;20078;-68
2022/02/06 00:10:45;;;;;;;8.35;2.15;;;2.50;92.30;;;;;;5041118;28;20029;-68
2022/02/06 00:13:11;;;;;;;8.00;2.05;;;2.50;92.30;;;;;;5039487;28;20029;-69
2022/02/06 00:15:36;;;;;;;6.90;2.17;;;2.40;92.30;;;;;;5039162;28;20330;-68
2022/02/06 00:18:02;;;;;;;9.52;2.17;;;2.40;92.30;;;;;;5041886;28;20029;-69
2022/02/06 00:20:41;;;;;;;7.05;1.98;;;2.50;92.30;;;;;;5043726;28;20044;-69
2022/02/06 00:23:11;;;;;;;6.82;2.00;;;2.50;92.20;;;;;;5041516;28;20124;-68
2022/02/06 00:25:58;;;;;;;7.53;1.65;;;2.50;92.20;;;;;;5045626;28;20049;-69
2022/02/06 00:31:08;;;;;;;10.63;2.55;;;2.40;92.50;;;;;;5043185;28;20124;-68
2022/02/06 00:33:52;;;;;;;6.28;2.30;;;2.30;92.60;;;;;;5038193;28;20029;-69
2022/02/06 00:39:05;;;;;;;7.38;1.80;;;2.40;92.40;;;;;;5041788;28;20211;-68
2022/02/06 00:41:32;;;;;;;6.60;1.98;;;2.40;92.30;;;;;;5037702;28;20108;-68
2022/02/06 00:44:04;;;;;;;6.93;2.20;;;2.50;92.00;;;;;;5045081;28;20040;-68
2022/02/06 00:46:36;;;;;;;9.55;2.78;;;2.60;91.60;;;;;;5043376;28;20039;-68
2022/02/06 00:49:15;;;;;;;7.43;1.70;;;2.50;91.60;;;;;;5042823;28;20057;-68
2022/02/06 00:51:52;;;;;;;6.38;1.70;;;2.50;91.90;;;;;;5046707;28;20319;-69
2022/02/06 00:54:22;;;;;;;8.38;2.58;;;2.40;92.10;;;;;;5040899;28;20021;-68
2022/02/06 00:56:48;;;;;;;7.15;1.70;;;2.40;92.10;;;;;;5040820;28;20079;-69
2022/02/06 00:59:13;;;;;;;11.85;3.03;;;2.50;92.10;;;;;;5037579;28;20319;-69
2022/02/06 01:01:42;;;;;;;12.40;2.22;;;2.50;92.00;;;;;;5040181;28;20025;-68
2022/02/06 01:04:13;;;;;;;11.85;2.00;;;2.50;92.00;;;;;;5040097;28;20074;-68
2022/02/06 01:06:39;;;;;;;4.88;2.00;;;2.60;91.60;;;;;;5042836;28;20045;-68
2022/02/06 01:09:05;;;;;;;4.68;1.85;;;2.60;91.50;;;;;;5038848;28;20030;-68
2022/02/06 01:11:33;;;;;;;9.88;2.00;;;2.60;91.50;;;;;;5040039;28;20098;-68
2022/02/06 01:14:09;;;;;;;7.20;1.95;;;2.70;91.10;;;;;;5045643;28;20036;-68
2022/02/06 01:17:05;;;;;;;7.93;2.05;;;2.70;91.10;;;;;;5041264;28;20033;-69
2022/02/06 01:19:25;;;;;;;4.93;1.75;;;2.70;91.10;;;;;;5042148;28;20034;-69
2022/02/06 01:21:59;;;;;;;8.82;2.08;;;2.70;91.10;;;;;;5041764;28;20327;-68
2022/02/06 01:24:41;;;;;;;;;;;2.60;91.10;;;;;;5042030;28;20053;-68
2022/02/06 01:27:12;;;;;;;8.00;2.20;;;2.70;90.90;;;;;;5042220;28;20328;-67
2022/02/06 01:32:09;;;;;;;5.05;1.67;;;2.60;91.30;;;;;;5042122;28;20067;-68
2022/02/06 01:37:54;;;;;;;6.78;1.98;;;2.60;91.10;;;;;;5039734;28;20075;-69
2022/02/06 01:40:15;;;;;;;5.05;1.90;;;2.70;90.90;;;;;;5043629;28;20033;-69
2022/02/06 01:42:46;;;;;;;11.75;2.10;;;2.60;91.00;;;;;;5040395;28;20033;-70
2022/02/06 02:20:20;;;;;;;8.65;1.95;;;2.70;90.50;;;;;;5042357;28;20033;-68
2022/02/06 02:46:41;;;;;;;9.27;2.10;;;2.60;91.20;;;;;;5038046;28;20036;-69
2022/02/06 02:49:13;;;;;;;6.93;1.83;;;2.60;91.10;;;;;;5038448;28;20036;-68
2022/02/06 02:51:43;;;;;;;8.23;1.60;;;2.60;91.20;;;;;;5042307;28;20523;-68
2022/02/06 02:54:13;;;;;;;5.15;1.60;;;2.50;91.50;;;;;;5035829;28;20107;-68
2022/02/06 02:59:16;;;;;;;8.23;1.90;;;2.60;91.20;;;;;;5048632;28;20025;-69
2022/02/06 03:01:57;;;;;;;8.85;2.00;;;2.60;90.90;;;;;;5052169;28;20024;-68
2022/02/06 03:04:23;;;;;;;7.63;1.90;;;2.60;90.80;;;;;;5040213;28;20037;-68
2022/02/06 03:06:49;;;;;;;7.10;1.77;;;2.70;90.60;;;;;;5041961;28;20037;-69
2022/02/06 03:09:15;;;;;;;5.30;1.70;;;2.70;90.50;;;;;;5036381;28;20034;-69
2022/02/06 03:11:41;;;;;;;7.60;1.90;;;2.60;90.20;;;;;;5041147;28;20035;-68
2022/02/06 03:14:14;;;;;;;7.97;1.90;;;2.80;89.40;;;;;;5035956;28;20021;-68
2022/02/06 03:16:48;;;;;;;7.53;2.00;;;2.80;89.20;;;;;;5039980;28;20104;-68
2022/02/06 03:19:19;;;;;;;5.80;1.70;;;2.80;89.30;;;;;;5036255;28;20029;-68
2022/02/06 03:21:45;;;;;;;6.45;1.75;;;2.70;89.60;;;;;;5035976;28;20054;-69
2022/02/06 03:24:27;;;;;;;7.55;1.60;;;2.70;89.70;;;;;;5037712;28;20108;-69
2022/02/06 03:26:55;;;;;;;7.10;1.98;;;2.60;90.10;;;;;;5042363;28;20458;-68
2022/02/06 03:29:23;;;;;;;5.63;1.88;;;2.70;89.60;;;;;;5036011;28;20434;-68
2022/02/06 03:31:50;;;;;;;7.60;1.90;;;2.80;89.30;;;;;;5037180;28;20033;-69
2022/02/06 03:34:16;;;;;;;6.18;1.70;;;2.80;88.80;;;;;;5039601;28;20040;-68
2022/02/06 03:36:42;;;;;;;8.68;1.67;;;2.80;88.80;;;;;;5037447;28;20034;-69
2022/02/06 03:39:08;;;;;;;7.10;1.90;;;2.80;89.10;;;;;;5034981;28;20026;-68
2022/02/06 03:44:35;;;;;;;8.70;2.00;;;2.90;88.50;;;;;;5037792;28;20095;-68
2022/02/06 03:47:18;;;;;;;7.38;1.80;;;2.90;88.50;;;;;;5034108;28;20095;-68
2022/02/06 03:49:54;;;;;;;7.63;1.80;;;2.90;88.80;;;;;;5038992;28;20088;-68
2022/02/06 03:52:22;;;;;;;4.97;1.65;;;2.90;88.50;;;;;;5045265;28;20038;-68
2022/02/06 03:54:48;;;;;;;9.05;1.80;;;2.90;89.00;;;;;;5041360;28;20039;-68
2022/02/06 03:57:13;;;;;;;6.88;1.90;;;2.90;88.90;;;;;;5044022;28;20025;-68
2022/02/06 03:59:39;;;;;;;7.35;1.70;;;2.90;88.80;;;;;;5037866;28;20022;-69
2022/02/06 04:02:05;;;;;;;4.00;1.55;;;3.00;88.70;;;;;;5033383;28;20422;-68
2022/02/06 04:04:31;;;;;;;6.03;1.95;;;3.00;88.50;;;;;;5037125;28;20485;-68
2022/02/06 04:07:06;;;;;;;5.03;1.70;;;3.00;88.50;;;;;;5035608;28;20100;-68
2022/02/06 04:09:41;;;;;;;5.80;1.60;;;3.00;88.70;;;;;;5035507;28;20064;-68
2022/02/06 04:12:07;;;;;;;6.47;1.90;;;3.00;88.90;;;;;;5035819;28;20060;-68
2022/02/06 04:14:42;;;;;;;8.23;2.00;;;3.00;89.00;;;;;;5036248;28;20071;-68
2022/02/06 04:17:21;;;;;;;5.88;1.80;;;3.10;88.60;;;;;;5036554;28;20040;-68
2022/02/06 04:19:46;;;;;;;8.07;1.60;;;3.10;88.80;;;;;;5039887;28;20099;-68
2022/02/06 04:22:12;;;;;;;6.00;1.50;;;3.00;88.90;;;;;;5038319;28;20029;-67
2022/02/06 04:24:38;;;;;;;8.63;3.13;;;3.10;88.20;;;;;;5046471;28;20341;-67
2022/02/06 04:27:04;;;;;;;9.55;2.63;;;3.20;88.00;;;;;;5038169;28;20022;-67
2022/02/06 04:29:30;;;;;;;8.70;1.60;;;3.20;88.20;;;;;;5039624;28;20029;-68
2022/02/06 04:31:55;;;;;;;7.78;1.70;;;3.20;87.80;;;;;;5036592;28;20025;-69
2022/02/06 04:34:23;;;;;;;4.60;1.77;;;3.20;87.90;;;;;;5034627;28;20115;-69
2022/02/06 04:37:07;;;;;;;28.38;9.15;;;3.20;87.40;;;;;;5044934;28;20032;-69
2022/02/06 05:12:26;;;;;;;8.05;1.80;;;3.20;88.10;;;;;;5042644;28;20127;-68
2022/02/06 05:25:51;;;;;;;7.32;1.92;;;3.00;89.40;;;;;;5044741;28;20099;-69
2022/02/06 05:30:18;;;;;;;8.70;2.63;;;3.00;89.20;;;;;;5045223;28;20136;-69
2022/02/06 05:33:02;;;;;;;10.35;1.90;;;3.00;89.20;;;;;;5043776;28;20072;-69
2022/02/06 05:35:28;;;;;;;6.70;1.70;;;3.00;89.40;;;;;;5037830;28;20029;-68
2022/02/06 05:37:54;;;;;;;6.43;2.17;;;3.00;89.30;;;;;;5038776;28;20155;-68
2022/02/06 05:40:20;;;;;;;8.13;2.28;;;3.00;89.40;;;;;;5043416;28;20033;-68
2022/02/06 05:42:46;;;;;;;9.00;1.70;;;3.00;89.40;;;;;;5039481;28;20075;-68
2022/02/06 05:45:12;;;;;;;5.20;1.50;;;3.00;89.20;;;;;;5042175;28;20334;-68
2022/02/06 05:47:38;;;;;;;7.90;2.03;;;3.00;89.10;;;;;;5040986;28;20116;-67
2022/02/06 05:50:04;;;;;;;5.70;2.03;;;3.10;89.00;;;;;;5039030;28;20133;-68
2022/02/06 05:52:32;;;;;;;5.45;1.88;;;3.10;89.10;;;;;;5039198;28;20029;-68
2022/02/06 05:54:58;;;;;;;9.55;1.92;;;3.10;88.90;;;;;;5039428;28;20029;-68
2022/02/06 05:57:24;;;;;;;7.05;1.75;;;3.10;88.70;;;;;;5036673;28;20854;-68
2022/02/06 05:59:50;;;;;;;5.78;2.00;;;3.20;88.80;;;;;;5038207;28;20117;-69
2022/02/06 06:02:17;;;;;;;5.55;2.17;;;3.10;89.00;;;;;;5044182;28;20029;-68
2022/02/06 06:04:43;;;;;;;9.60;1.90;;;3.20;88.70;;;;;;5038625;28;20048;-69
2022/02/06 06:07:08;;;;;;;8.63;1.70;;;3.20;88.70;;;;;;5044205;28;20099;-68
2022/02/06 06:09:34;;;;;;;6.57;1.63;;;3.20;88.90;;;;;;5042725;28;20118;-69
2022/02/06 06:12:00;;;;;;;5.63;2.60;;;3.20;89.00;;;;;;5037829;28;20037;-68
2022/02/06 06:14:28;;;;;;;10.73;2.13;;;3.20;89.20;;;;;;5040530;28;20418;-68
2022/02/06 06:16:56;;;;;;;7.82;2.00;;;3.20;89.30;;;;;;5040165;28;20021;-69
2022/02/06 06:19:21;;;;;;;8.43;2.28;;;3.20;89.50;;;;;;5036242;28;20022;-68
2022/02/06 06:21:53;;;;;;;7.25;2.15;;;3.20;89.50;;;;;;5037953;28;20032;-68
2022/02/06 06:24:21;;;;;;;7.90;2.20;;;3.20;89.30;;;;;;5041721;28;20028;-69
2022/02/06 06:26:47;;;;;;;5.20;1.80;;;3.30;89.30;;;;;;5041191;28;20430;-68
2022/02/06 06:29:12;;;;;;;8.10;1.80;;;3.30;89.30;;;;;;5041225;28;20029;-68
2022/02/06 06:31:38;;;;;;;9.23;2.30;;;3.30;89.20;;;;;;5035013;28;20056;-68
2022/02/06 06:34:04;;;;;;;7.68;1.80;;;3.40;89.20;;;;;;5039621;28;20038;-68
2022/02/06 06:36:31;;;;;;;7.97;2.13;;;3.30;89.20;;;;;;5038362;28;20556;-68
2022/02/06 06:38:57;;;;;;;7.65;2.10;;;3.40;89.10;;;;;;5042182;28;20033;-67
2022/02/06 06:41:23;;;;;;;8.88;2.13;;;3.40;89.20;;;;;;5042382;28;20378;-68
2022/02/06 06:43:48;;;;;;;8.70;2.00;;;3.40;89.30;;;;;;5040940;28;21664;-68
2022/02/06 06:46:14;;;;;;;5.35;1.92;;;3.40;89.20;;;;;;5037132;28;20091;-69
2022/02/06 06:48:40;;;;;;;8.18;1.90;;;3.40;89.40;;;;;;5038578;28;20021;-68
2022/02/06 06:51:07;;;;;;;7.20;2.15;;;3.40;89.50;;;;;;5037782;28;20065;-68
2022/02/06 06:53:36;;;;;;;7.45;2.47;;;3.40;89.70;;;;;;5037758;28;20423;-68
2022/02/06 06:56:08;;;;;;;5.90;1.90;;;3.40;89.70;;;;;;5050235;28;20032;-68
2022/02/06 06:58:40;;;;;;;7.65;2.13;;;3.40;89.70;;;;;;5049370;28;20029;-68
2022/02/06 07:01:31;;;;;;;6.72;1.85;;;3.50;89.50;;;;;;5041728;28;20025;-68
2022/02/06 07:03:55;;;;;;;10.52;1.92;;;3.60;89.20;;;;;;5044998;28;20033;-68
2022/02/06 07:06:20;;;;;;;11.25;3.28;;;3.60;89.30;;;;;;5037836;28;20038;-68
2022/02/06 07:08:46;;;;;;;8.52;2.30;;;3.60;89.30;;;;;;5044707;28;20033;-68
2022/02/06 07:11:12;;;;;;;7.45;2.22;;;3.60;89.30;;;;;;5043899;28;20029;-68
2022/02/06 07:13:37;;;;;;;9.43;2.10;;;3.60;89.20;;;;;;5040915;28;20444;-68
2022/02/06 07:16:06;;;;;;;5.53;1.85;;;3.60;89.20;;;;;;5044708;28;20029;-67
2022/02/06 07:18:31;;;;;;;8.30;2.13;;;3.70;88.90;;;;;;5037358;28;20029;-68
2022/02/06 07:20:57;;;;;;;4.43;1.70;;;3.70;88.80;;;;;;5048421;28;20030;-67
2022/02/06 07:23:23;;;;;;;8.95;2.05;;;3.80;88.50;;;;;;5044133;28;20155;-67
2022/02/06 07:25:51;;;;;;;9.98;1.83;;;3.80;88.60;;;;;;5042165;28;20067;-69
2022/02/06 07:28:19;;;;;;;8.82;2.10;;;3.90;88.30;;;;;;5042568;28;20345;-69
2022/02/06 07:30:48;;;;;;;11.52;2.10;;;3.90;88.20;;;;;;5037962;28;20021;-69
2022/02/06 07:33:17;;;;;;;10.38;2.03;;;3.90;88.10;;;;;;5041989;28;20033;-69
2022/02/06 07:35:43;;;;;;;9.80;2.58;;;3.90;87.90;;;;;;5044651;28;20110;-69
2022/02/06 07:38:08;;;;;;;6.60;1.90;;;3.90;88.30;;;;;;5053408;28;20092;-69
2022/02/06 07:40:34;;;;;;;8.45;2.10;;;3.80;88.70;;;;;;5044420;28;20029;-69
2022/02/06 07:43:00;;;;;;;5.93;2.03;;;3.80;89.00;;;;;;5036229;28;20034;-68
2022/02/06 07:45:26;;;;;;;7.95;2.13;;;3.80;89.20;;;;;;5040592;28;20034;-68
2022/02/06 07:47:52;;;;;;;10.60;1.98;;;3.80;89.30;;;;;;5044264;28;20083;-69
2022/02/06 07:50:18;;;;;;;6.93;1.90;;;3.90;89.20;;;;;;5050337;28;20031;-68
2022/02/06 07:52:44;;;;;;;9.48;1.80;;;3.90;89.30;;;;;;5041267;28;20116;-68
2022/02/06 07:55:10;;;;;;;9.15;2.10;;;3.90;89.40;;;;;;5052456;28;20025;-69
2022/02/06 07:57:38;;;;;;;7.80;2.60;;;3.90;89.30;;;;;;5044937;28;20029;-68
2022/02/06 08:00:06;;;;;;;5.85;1.90;;;3.90;89.10;;;;;;5053282;28;20017;-68
2022/02/06 08:02:32;;;;;;;6.97;2.10;;;3.90;89.20;;;;;;5039564;28;20362;-68
2022/02/06 08:04:58;;;;;;;7.53;1.85;;;4.00;88.90;;;;;;5041723;28;20030;-69
2022/02/06 08:07:24;;;;;;;10.75;2.20;;;4.00;88.80;;;;;;5045141;28;20038;-69
2022/02/06 08:09:54;;;;;;;9.32;2.17;;;4.10;88.70;;;;;;5038597;28;20064;-68
2022/02/06 08:12:26;;;;;;;6.00;1.85;;;4.20;88.30;;;;;;5042354;28;20052;-68
2022/02/06 08:14:55;;;;;;;7.95;2.53;;;4.30;88.00;;;;;;5039845;28;20377;-67
2022/02/06 08:17:26;;;;;;;5.93;1.70;;;4.30;87.80;;;;;;5046197;28;20029;-68
2022/02/06 08:19:53;;;;;;;6.47;2.50;;;4.50;87.50;;;;;;5040818;28;20029;-69
2022/02/06 08:22:19;;;;;;;4.38;1.60;;;4.60;87.00;;;;;;5048219;28;20043;-68
2022/02/06 08:24:45;;;;;;;7.65;1.63;;;4.50;87.10;;;;;;5051640;28;20050;-68
2022/02/06 08:27:11;;;;;;;7.18;1.90;;;4.50;87.30;;;;;;5042591;28;20025;-68
2022/02/06 08:29:39;;;;;;;17.98;4.15;;;4.40;87.70;;;;;;5050217;28;20338;-68
2022/02/06 08:32:06;;;;;;;7.45;1.77;;;4.40;87.70;;;;;;5046431;28;20056;-68
2022/02/06 08:34:32;;;;;;;8.10;2.40;;;4.50;87.50;;;;;;5050821;28;20028;-69
2022/02/06 08:36:59;;;;;;;6.95;2.00;;;4.60;87.20;;;;;;5046648;28;20028;-68
2022/02/06 08:39:27;;;;;;;5.30;2.15;;;4.80;87.00;;;;;;5058317;28;20448;-67
2022/02/06 08:41:59;;;;;;;7.38;1.75;;;4.90;86.50;;;;;;5049254;28;20037;-68
2022/02/06 08:44:26;;;;;;;6.88;2.60;;;5.00;86.20;;;;;;5047245;28;20017;-68
2022/02/06 08:46:52;;;;;;;5.65;1.73;;;5.10;86.00;;;;;;5063542;28;20021;-68
2022/02/06 08:49:17;;;;;;;9.93;2.65;;;5.30;85.20;;;;;;5048302;28;20548;-68
2022/02/06 08:51:45;;;;;;;5.00;1.55;;;5.30;85.20;;;;;;5053020;28;20030;-68
2022/02/06 08:54:11;;;;;;;5.47;1.92;;;5.30;85.20;;;;;;5046235;28;20025;-68
2022/02/06 08:56:39;;;;;;;7.00;2.75;;;5.30;85.00;;;;;;5046325;28;20112;-68
2022/02/06 08:59:07;;;;;;;8.98;1.88;;;5.40;85.10;;;;;;5046496;28;20013;-67
2022/02/06 09:01:33;;;;;;;10.23;1.73;;;5.30;85.10;;;;;;5047427;28;20047;-68
2022/02/06 09:03:59;;;;;;;8.40;1.83;;;5.20;85.50;;;;;;5037906;28;20033;-68
2022/02/06 09:06:25;;;;;;;9.48;1.63;;;5.10;86.10;;;;;;5043877;28;20020;-67
2022/02/06 09:08:55;;;;;;;5.35;1.80;;;5.20;85.50;;;;;;5044530;28;20026;-68
2022/02/06 09:11:23;;;;;;;7.78;2.05;;;5.30;85.70;;;;;;5045190;28;20431;-68
2022/02/06 09:13:49;;;;;;;9.75;1.63;;;5.30;85.10;;;;;;5046582;28;20057;-68
2022/02/06 09:16:14;;;;;;;5.30;2.17;;;5.30;85.40;;;;;;5043539;28;20045;-68
2022/02/06 09:18:40;;;;;;;7.05;1.90;;;5.20;85.50;;;;;;5046099;28;20034;-68
2022/02/06 09:21:06;;;;;;;6.25;1.85;;;5.30;85.90;;;;;;5041481;28;20059;-69
2022/02/06 09:23:31;;;;;;;6.50;1.70;;;5.40;84.90;;;;;;5040785;28;20032;-69
2022/02/06 09:25:57;;;;;;;11.68;2.25;;;5.40;85.10;;;;;;5049977;28;20045;-69
2022/02/06 09:28:23;;;;;;;6.68;1.70;;;5.30;85.30;;;;;;5044114;28;20318;-68
2022/02/06 09:30:49;;;;;;;7.60;1.95;;;5.20;85.60;;;;;;5043617;28;20033;-69
2022/02/06 09:35:40;;;;;;;6.97;1.48;;;5.10;86.00;;;;;;5048986;28;20061;-68
2022/02/06 09:38:06;;;;;;;4.10;1.45;;;5.20;86.00;;;;;;5049611;28;20029;-68
2022/02/06 09:40:37;;;;;;;4.28;1.50;;;5.30;85.40;;;;;;5054617;28;20091;-68
2022/02/06 09:43:05;;;;;;;5.90;1.70;;;5.20;85.80;;;;;;5048243;28;20325;-69
2022/02/06 09:45:33;;;;;;;6.22;1.63;;;5.10;85.90;;;;;;5040890;28;20044;-68
2022/02/06 09:48:00;;;;;;;19.50;6.97;;;5.00;85.90;;;;;;5043992;28;20120;-68
2022/02/06 09:50:27;;;;;;;8.15;1.80;;;5.00;86.00;;;;;;5053291;28;20628;-68
2022/02/06 09:52:54;;;;;;;7.00;1.80;;;5.00;86.60;;;;;;5050524;28;20021;-68
2022/02/06 09:55:22;;;;;;;10.00;1.50;;;5.00;86.10;;;;;;5044272;28;20033;-68
2022/02/06 09:57:56;;;;;;;7.57;1.80;;;5.00;86.30;;;;;;5048257;28;20029;-68
2022/02/06 10:00:25;;;;;;;6.43;1.80;;;5.10;86.20;;;;;;5044544;28;20033;-68
2022/02/06 10:02:53;;;;;;;4.93;1.50;;;5.30;85.80;;;;;;5044481;28;20540;-68
2022/02/06 10:05:23;;;;;;;8.05;1.60;;;5.40;85.30;;;;;;5042431;28;20030;-69
2022/02/06 10:08:13;;;;;;;5.18;1.60;;;5.30;85.40;;;;;;5041997;28;20048;-68
2022/02/06 10:10:54;;;;;;;7.28;2.30;;;5.30;86.00;;;;;;5043333;28;20120;-67
2022/02/06 10:13:20;;;;;;;8.75;2.08;;;5.40;85.40;;;;;;5044467;28;20029;-67
2022/02/06 10:15:48;;;;;;;5.18;1.50;;;5.50;85.30;;;;;;5045335;28;20024;-68
2022/02/06 10:18:14;;;;;;;6.78;1.42;;;5.50;85.00;;;;;;5044056;28;20159;-67
2022/02/06 10:20:48;;;;;;;6.22;1.70;;;5.60;84.90;;;;;;5045277;28;20017;-69
2022/02/06 10:23:25;;;;;;;5.80;1.75;;;5.50;85.00;;;;;;5048089;28;20092;-69
2022/02/06 10:25:53;;;;;;;6.78;2.00;;;5.60;85.20;;;;;;5040534;28;20048;-68
2022/02/06 10:28:35;;;;;;;7.65;1.73;;;5.60;85.50;;;;;;5042550;28;20026;-68
2022/02/06 10:31:04;;;;;;;5.32;1.52;;;5.80;85.20;;;;;;5043680;28;20025;-67
2022/02/06 10:33:51;;;;;;;6.72;1.48;;;5.80;84.80;;;;;;5039803;28;20029;-66
2022/02/06 10:36:23;;;;;;;3.72;1.35;;;5.80;85.00;;;;;;5045992;28;20021;-68
2022/02/06 10:38:48;;;;;;;5.55;1.60;;;5.80;85.00;;;;;;5050934;28;20310;-66
2022/02/06 10:41:17;;;;;;;4.93;1.52;;;5.60;85.30;;;;;;5049106;28;20078;-68
2022/02/06 10:44:00;;;;;;;8.77;2.00;;;5.70;86.00;;;;;;5045674;28;20026;-68
2022/02/06 10:46:28;;;;;;;5.38;1.80;;;5.70;85.30;;;;;;5045949;28;20030;-65
2022/02/06 10:48:58;;;;;;;5.88;1.77;;;5.60;85.90;;;;;;5045969;28;20029;-66
2022/02/06 10:51:38;;;;;;;4.60;1.50;;;5.70;86.00;;;;;;5043537;28;20021;-66
2022/02/06 10:54:14;;;;;;;9.73;3.35;;;5.70;85.50;;;;;;5045431;28;20029;-66
2022/02/06 10:57:07;;;;;;;7.10;2.22;;;5.70;85.70;;;;;;5050420;28;20044;-66
2022/02/06 10:59:53;;;;;;;8.50;2.70;;;5.60;85.90;;;;;;5047313;28;20021;-67
2022/02/06 11:02:58;;;;;;;7.05;1.67;;;5.60;86.30;;;;;;5043409;28;20315;-67
2022/02/06 11:05:33;;;;;;;6.15;2.22;;;5.60;86.60;;;;;;5048186;28;20045;-68
2022/02/06 11:08:01;;;;;;;6.88;2.00;;;5.60;86.50;;;;;;5042403;28;20029;-67
2022/02/06 11:10:35;;;;;;;6.03;1.75;;;5.80;86.90;;;;;;5048604;28;20017;-67
2022/02/06 11:13:05;;;;;;;4.63;1.80;;;6.00;86.00;;;;;;5043407;28;20370;-67
2022/02/06 11:15:40;;;;;;;3.45;1.50;;;5.90;86.10;;;;;;5049803;28;20025;-66
2022/02/06 11:18:12;;;;;;;5.95;1.83;;;5.80;86.50;;;;;;5048981;28;20320;-68
2022/02/06 11:21:04;;;;;;;5.97;2.10;;;5.80;86.50;;;;;;5048461;28;20086;-67
2022/02/06 11:23:38;;;;;;;7.70;1.70;;;5.80;87.00;;;;;;5045900;28;20029;-67
2022/02/06 11:26:05;;;;;;;5.32;1.80;;;6.10;86.00;;;;;;5047003;28;20130;-67
2022/02/06 11:28:31;;;;;;;5.65;1.80;;;6.30;85.80;;;;;;5040862;28;20032;-67
2022/02/06 11:30:57;;;;;;;5.78;1.60;;;6.40;85.40;;;;;;5041147;28;20092;-67
2022/02/06 11:33:23;;;;;;;6.05;1.58;;;6.40;85.10;;;;;;5039431;28;20376;-67
2022/02/06 11:35:57;;;;;;;4.05;1.38;;;6.40;85.10;;;;;;5040716;28;20025;-67
2022/02/06 11:44:33;;;;;;;6.70;1.55;;;6.00;86.20;;;;;;5053950;28;20187;-68
2022/02/06 11:47:17;;;;;;;5.43;1.30;;;5.90;86.50;;;;;;5042851;28;20446;-68
2022/02/06 11:49:50;;;;;;;4.05;1.48;;;5.80;86.80;;;;;;5052530;28;20021;-65
2022/02/06 11:52:16;;;;;;;5.28;1.30;;;5.70;86.90;;;;;;5047015;28;20028;-68
2022/02/06 11:54:48;;;;;;;4.55;1.50;;;5.70;87.20;;;;;;5045948;28;20029;-67
2022/02/06 11:57:27;;;;;;;8.38;1.90;;;5.80;87.30;;;;;;5051561;28;20018;-68
2022/02/06 12:00:07;;;;;;;5.20;1.77;;;5.80;87.20;;;;;;5043655;28;20502;-68
2022/02/06 12:02:44;;;;;;;5.30;1.73;;;5.80;87.50;;;;;;5043126;28;20037;-67
2022/02/06 12:05:28;;;;;;;2.80;1.30;;;5.80;87.00;;;;;;5045771;28;20313;-68
2022/02/06 12:08:00;;;;;;;6.40;1.90;;;5.80;87.10;;;;;;5046256;28;20029;-69
2022/02/06 12:10:37;;;;;;;6.72;1.80;;;5.80;87.20;;;;;;5050543;28;20108;-69
2022/02/06 12:13:19;;;;;;;5.25;1.50;;;5.80;87.30;;;;;;5051230;28;20167;-68
2022/02/06 12:15:53;;;;;;;5.78;1.88;;;5.80;87.00;;;;;;5049398;28;20421;-68
2022/02/06 12:18:36;;;;;;;5.63;2.05;;;5.80;87.20;;;;;;5050448;28;20029;-68
2022/02/06 12:21:12;;;;;;;13.30;1.87;;;5.80;87.20;;;;;;5049714;28;20041;-69
2022/02/06 12:23:50;;;;;;;6.45;2.55;;;5.90;87.10;;;;;;5052717;28;20103;-68
2022/02/06 12:26:31;;;;;;;4.10;1.50;;;5.90;87.10;;;;;;5053477;28;20045;-67
2022/02/06 12:29:08;;;;;;;4.40;1.83;;;6.00;86.80;;;;;;5049682;28;20116;-70
2022/02/06 12:31:57;;;;;;;5.68;1.67;;;6.10;86.60;;;;;;5044436;28;20094;-68
2022/02/06 12:37:38;;;;;;;4.80;1.50;;;6.30;86.10;;;;;;5052584;28;20102;-68
2022/02/06 12:40:17;;;;;;;4.22;1.33;;;6.20;86.10;;;;;;5055350;28;20394;-68
2022/02/06 12:42:45;;;;;;;6.38;1.48;;;6.20;85.80;;;;;;5047492;28;20128;-68
2022/02/06 12:45:14;;;;;;;3.88;1.60;;;6.20;86.10;;;;;;5052419;28;20017;-68
2022/02/06 12:47:47;;;;;;;5.72;1.60;;;6.20;86.00;;;;;;5043988;28;20064;-68
2022/02/06 12:50:17;;;;;;;6.45;1.30;;;6.20;85.60;;;;;;5045479;28;20033;-68
2022/02/06 12:52:44;;;;;;;3.40;1.58;;;6.20;85.40;;;;;;5047036;28;20025;-69
2022/02/06 12:55:11;;;;;;;4.40;1.65;;;6.30;85.30;;;;;;5042674;28;20022;-67
2022/02/06 12:57:52;;;;;;;3.15;1.60;;;6.30;85.20;;;;;;5057114;28;20028;-68
2022/02/06 13:00:30;;;;;;;3.22;1.35;;;6.40;85.00;;;;;;5048847;28;20108;-68
2022/02/06 13:03:22;;;;;;;3.45;1.45;;;6.40;85.30;;;;;;5048325;28;20025;-68
2022/02/06 13:06:06;;;;;;;1.95;0.93;;;6.40;85.10;;;;;;5045038;28;20037;-68
2022/02/06 13:08:37;;;;;;;3.55;1.50;;;6.50;84.90;;;;;;5048641;28;20431;-67
2022/02/06 13:11:09;;;;;;;4.47;1.23;;;6.60;84.80;;;;;;5046074;28;20044;-66
2022/02/06 13:13:52;;;;;;;4.57;1.15;;;6.50;84.70;;;;;;5050806;28;20024;-66
2022/02/06 13:16:39;;;;;;;2.60;1.17;;;6.50;84.90;;;;;;5053039;28;20074;-68
2022/02/06 13:32:36;;;;;;;2.72;1.30;;;6.30;87.00;;;;;;5041202;28;20133;-68
2022/02/06 13:37:56;;;;;;;3.60;1.58;;;6.20;87.70;;;;;;5048943;28;20027;-67
2022/02/06 13:40:27;;;;;;;3.40;1.00;;;6.20;87.60;;;;;;5043664;28;20021;-68
2022/02/06 13:43:01;;;;;;;1.85;1.02;;;6.20;87.80;;;;;;5043510;28;20030;-67
2022/02/06 13:45:28;;;;;;;2.00;1.00;;;6.20;87.70;;;;;;5044153;28;20080;-68
2022/02/06 13:47:59;;;;;;;1.73;1.00;;;6.20;87.90;;;;;;5045202;28;20100;-68
2022/02/06 13:50:27;;;;;;;2.63;1.10;;;6.20;87.80;;;;;;5047501;28;20100;-68
2022/02/06 13:53:16;;;;;;;5.63;1.33;;;6.20;87.40;;;;;;5045660;28;20414;-68
2022/02/06 13:55:49;;;;;;;3.60;1.30;;;6.20;87.20;;;;;;5046751;28;20021;-68
2022/02/06 13:58:18;;;;;;;2.60;1.10;;;6.20;87.20;;;;;;5049126;28;20106;-69
2022/02/06 14:01:05;;;;;;;2.47;1.10;;;6.20;87.80;;;;;;5043543;28;20053;-68
2022/02/06 14:03:47;;;;;;;2.88;1.25;;;6.20;88.40;;;;;;5050024;28;20370;-68
2022/02/06 14:06:21;;;;;;;2.30;0.98;;;6.20;88.70;;;;;;5053067;28;20158;-68
2022/02/06 14:09:25;;;;;;;;;;;6.20;88.30;;;;;;5053407;28;20029;-68
2022/02/06 14:12:03;;;;;;;9.98;3.67;;;6.10;89.40;;;;;;5047749;28;19909;-68
2022/02/06 14:14:30;;;;;;;13.07;6.28;;;6.00;90.00;;;;;;5044604;28;20104;-68
2022/02/06 14:16:57;;;;;;;2.90;1.17;;;5.90;91.30;;;;;;5044110;28;20029;-68
2022/02/06 14:19:44;;;;;;;2.08;1.10;;;5.80;91.30;;;;;;5055324;28;20429;-66
2022/02/06 14:22:31;;;;;;;2.05;1.05;;;5.80;91.30;;;;;;5042432;28;20025;-68
2022/02/06 14:25:03;;;;;;;2.63;1.05;;;5.80;92.10;;;;;;5044639;28;20124;-68
2022/02/06 14:27:31;;;;;;;2.33;1.08;;;5.80;92.60;;;;;;5048833;28;20091;-67
2022/02/06 14:29:57;;;;;;;2.88;1.23;;;5.70;93.40;;;;;;5044570;28;20348;-67
2022/02/06 14:32:24;;;;;;;2.58;1.10;;;5.60;93.80;;;;;;5039674;28;20079;-67
2022/02/06 14:35:08;;;;;;;2.22;1.15;;;5.40;94.20;;;;;;5046975;28;20028;-67
2022/02/06 14:37:52;;;;;;;;;;;5.30;95.20;;;;;;5045661;28;20021;-68
2022/02/06 14:43:14;;;;;;;2.35;1.10;;;5.00;96.90;;;;;;5040961;28;20032;-68
2022/02/06 14:45:49;;;;;;;2.30;1.10;;;4.90;97.70;;;;;;5042622;28;20108;-69
2022/02/06 14:48:15;;;;;;;1.95;1.17;;;4.70;98.00;;;;;;5040007;28;20032;-68
2022/02/06 14:50:47;;;;;;;3.20;1.30;;;4.70;98.00;;;;;;5051302;28;20029;-68
2022/02/06 14:53:13;;;;;;;1.55;0.98;;;4.60;98.00;;;;;;5046982;28;20025;-68
2022/02/06 14:55:42;;;;;;;2.40;1.08;;;4.50;98.00;;;;;;5045827;28;20026;-68
2022/02/06 14:58:11;;;;;;;2.08;1.00;;;4.50;98.00;;;;;;5043520;28;20349;-69
2022/02/06 15:00:41;;;;;;;2.35;1.00;;;4.50;98.00;;;;;;5043611;28;20021;-69
2022/02/06 15:03:08;;;;;;;2.22;1.00;;;4.50;98.00;;;;;;5040788;28;20036;-69
2022/02/06 15:05:35;;;;;;;1.40;0.93;;;4.50;98.00;;;;;;5045212;28;20489;-69
2022/02/06 15:08:05;;;;;;;1.38;0.95;;;4.50;98.00;;;;;;5043983;28;20425;-70
2022/02/06 15:10:35;;;;;;;1.42;0.95;;;4.40;98.00;;;;;;5044042;28;20079;-70
2022/02/06 15:13:02;;;;;;;1.48;0.90;;;4.40;98.00;;;;;;5054742;28;20035;-68
2022/02/06 15:15:36;;;;;;;1.33;0.80;;;4.40;98.00;;;;;;5041628;28;20029;-69
2022/02/06 15:18:11;;;;;;;;;;;4.40;98.00;;;;;;5043031;28;20105;-69
2022/02/06 15:20:37;;;;;;;1.80;0.95;;;4.40;98.00;;;;;;5041806;28;20276;-69
2022/02/06 15:23:07;;;;;;;2.45;0.90;;;4.30;98.00;;;;;;5045435;28;20033;-69
2022/02/06 15:25:34;;;;;;;1.48;0.90;;;4.40;98.00;;;;;;5045372;28;20047;-69
2022/02/06 15:28:00;;;;;;;1.17;0.90;;;4.30;98.00;;;;;;5047971;28;20029;-69
2022/02/06 15:30:29;;;;;;;2.28;1.00;;;4.30;98.00;;;;;;5037516;28;20418;-69
2022/02/06 15:32:57;;;;;;;1.65;1.08;;;4.20;98.00;;;;;;5038982;28;20022;-69
2022/02/06 15:35:23;;;;;;;1.48;0.90;;;4.30;98.00;;;;;;5039613;28;20044;-69
2022/02/06 15:37:49;;;;;;;1.08;0.85;;;4.20;98.00;;;;;;5047131;28;20356;-70
2022/02/06 15:40:21;;;;;;;1.92;0.90;;;4.20;98.00;;;;;;5044402;28;20078;-69
2022/02/06 15:42:46;;;;;;;2.63;1.10;;;4.20;98.00;;;;;;5047779;28;20028;-69
2022/02/06 15:45:12;;;;;;;1.85;1.00;;;4.20;98.00;;;;;;5046026;28;20034;-70
2022/02/06 15:47:38;;;;;;;3.30;1.42;;;4.20;98.00;;;;;;5049695;28;20033;-70